Terminal Aerodrome Forecast
Issued by NWS

Home | Current Version | Previous Version | Text Only | Print | Product List | Glossary On
Versions: 1 2 3 4 5 6 7 8 9 10 11 12 13 14 15 16 17 18 19 20 21 22 23 24 25 26 27 28
000
FTUS44 KEWX 250520
TAFSSF
TAF
KSSF 250520Z 2506/2606 14012G22KT P6SM BKN022 OVC030
     FM250800 15009KT 6SM BR OVC007
     FM251500 16010KT P6SM OVC015
     FM251900 15011KT P6SM OVC045
     FM260400 13009KT P6SM OVC015=

USA.gov is the U.S. government's official web portal to all federal, state and local government web resources and services.